Observation data for Hart on 12/09/2018      Previous  Date       Current Mesonet Observations  Soil Data  Daily Summary Page  Observations in Plain Language
KHRS 090600Z 26003KT M05/M05 A3029 RMK A01 T10461049  RH  099%=      5-min Rain = 0
KHRS 090605Z 27003KT M05/M05 A3029 RMK A01 T10461049  RH  099%=      5-min Rain = 0
KHRS 090610Z 27003KT M05/M05 A3029 RMK A01 T10461048  RH  099%=      5-min Rain = 0
KHRS 090615Z 27003KT M05/M05 A3029 RMK A01 T10461048  RH  099%=      5-min Rain = 0
KHRS 090620Z 28003KT M05/M05 A3029 RMK A01 T10451047  RH  100%=      5-min Rain = 0
KHRS 090625Z 29003KT M04/M05 A3029 RMK A01 T10441047  RH  100%=      5-min Rain = 0
KHRS 090630Z 30004KT M05/M05 A3029 RMK A01 T10461048  RH  099%=      5-min Rain = 0
KHRS 090635Z 30004KT M05/M05 A3029 RMK A01 T10481051  RH  099%=      5-min Rain = 0
KHRS 090640Z 30004KT M05/M05 A3029 RMK A01 T10481051  RH  099%=      5-min Rain = 0
KHRS 090645Z 30004KT M05/M05 A3028 RMK A01 T10481050  RH  100%=      5-min Rain = 0
KHRS 090650Z 31005KT M05/M05 A3028 RMK A01 T10471050  RH  100%=      5-min Rain = 0
KHRS 090655Z 31005KT M05/M05 A3028 RMK A01 T10481050  RH  100%=      5-min Rain = 0
KHRS 090700Z 31005KT M05/M05 A3028 RMK A01 T10481050  RH  100%=      5-min Rain = 0
KHRS 090705Z 30005KT M05/M05 A3028 RMK A01 T10471050  RH  100%=      5-min Rain = 0
KHRS 090710Z 30005KT M05/M05 A3028 RMK A01 T10471049  RH  100%=      5-min Rain = 0
KHRS 090715Z 30004KT M05/M05 A3028 RMK A01 T10461048  RH  100%=      5-min Rain = 0
KHRS 090720Z 30004KT M05/M05 A3028 RMK A01 T10451048  RH  100%=      5-min Rain = 0
KHRS 090725Z 31004KT M05/M05 A3028 RMK A01 T10451047  RH  100%=      5-min Rain = 0
KHRS 090730Z 31004KT M05/M05 A3028 RMK A01 T10451047  RH  100%=      5-min Rain = 0
KHRS 090735Z 31004KT M04/M05 A3027 RMK A01 T10441046  RH  100%=      5-min Rain = 0
KHRS 090740Z 32004KT M04/M05 A3027 RMK A01 T10441046  RH  100%=      5-min Rain = 0
KHRS 090745Z 32004KT M05/M05 A3027 RMK A01 T10451048  RH  099%=      5-min Rain = 0
KHRS 090750Z 32004KT M05/M05 A3027 RMK A01 T10461049  RH  099%=      5-min Rain = 0
KHRS 090755Z 32004KT M05/M05 A3027 RMK A01 T10481051  RH  099%=      5-min Rain = 0
KHRS 090800Z 32004KT M05/M05 A3027 RMK A01 T10501053  RH  099%=      5-min Rain = 0
KHRS 090805Z 32004KT M05/M05 A3028 RMK A01 T10511054  RH  099%=      5-min Rain = 0
KHRS 090810Z 32004KT M05/M05 A3028 RMK A01 T10511054  RH  099%=      5-min Rain = 0
KHRS 090815Z 31004KT M05/M06 A3028 RMK A01 T10521055  RH  099%=      5-min Rain = 0
KHRS 090820Z 31005KT M05/M05 A3028 RMK A01 T10521054  RH  099%=      5-min Rain = 0
KHRS 090825Z 32005KT M05/M05 A3028 RMK A01 T10511054  RH  099%=      5-min Rain = 0
KHRS 090830Z 32005KT M05/M05 A3028 RMK A01 T10511053  RH  099%=      5-min Rain = 0
KHRS 090835Z 32006KT M05/M05 A3028 RMK A01 T10511054  RH  099%=      5-min Rain = 0
KHRS 090840Z 32007KT M05/M05 A3028 RMK A01 T10511054  RH  099%=      5-min Rain = 0
KHRS 090845Z 32006KT M05/M05 A3028 RMK A01 T10511054  RH  099%=      5-min Rain = 0
KHRS 090850Z 32005KT M05/M05 A3028 RMK A01 T10511054  RH  099%=      5-min Rain = 0
KHRS 090855Z 32006KT M05/M06 A3028 RMK A01 T10521055  RH  099%=      5-min Rain = 0
KHRS 090900Z 32006KT M05/M06 A3028 RMK A01 T10521056  RH  099%=      5-min Rain = 0
KHRS 090905Z 32006KT M05/M06 A3028 RMK A01 T10521055  RH  099%=      5-min Rain = 0
KHRS 090910Z 32007KT M05/M05 A3028 RMK A01 T10511054  RH  099%=      5-min Rain = 0
KHRS 090915Z 32006KT M05/M06 A3028 RMK A01 T10511055  RH  099%=      5-min Rain = 0
KHRS 090920Z 32007KT M05/M06 A3028 RMK A01 T10521056  RH  098%=      5-min Rain = 0
KHRS 090925Z 32007KT M05/M06 A3029 RMK A01 T10531056  RH  098%=      5-min Rain = 0
KHRS 090930Z 32007KT M05/M06 A3029 RMK A01 T10521056  RH  098%=      5-min Rain = 0
KHRS 090935Z 32007KT M05/M06 A3028 RMK A01 T10521056  RH  098%=      5-min Rain = 0
KHRS 090940Z 32007KT M05/M06 A3028 RMK A01 T10521055  RH  098%=      5-min Rain = 0
KHRS 090945Z 32007KT M05/M06 A3028 RMK A01 T10511055  RH  098%=      5-min Rain = 0
KHRS 090950Z 32006KT M05/M05 A3029 RMK A01 T10501054  RH  098%=      5-min Rain = 0
KHRS 090955Z 32006KT M05/M05 A3028 RMK A01 T10501054  RH  098%=      5-min Rain = 0
KHRS 091000Z 32006KT M05/M05 A3028 RMK A01 T10501054  RH  098%=      5-min Rain = 0
KHRS 091005Z 32007KT M05/M05 A3028 RMK A01 T10501054  RH  098%=      5-min Rain = 0
KHRS 091010Z 32006KT M05/M05 A3028 RMK A01 T10501054  RH  098%=      5-min Rain = 0
KHRS 091015Z 33007KT M05/M05 A3028 RMK A01 T10501054  RH  098%=      5-min Rain = 0
KHRS 091020Z 33007KT M05/M06 A3028 RMK A01 T10511055  RH  098%=      5-min Rain = 0
KHRS 091025Z 33007KT M05/M06 A3028 RMK A01 T10511055  RH  098%=      5-min Rain = 0
KHRS 091030Z 33008KT M05/M06 A3028 RMK A01 T10511055  RH  098%=      5-min Rain = 0
KHRS 091035Z 33008KT M05/M05 A3028 RMK A01 T10491053  RH  098%=      5-min Rain = 0
KHRS 091040Z 33008KT M05/M05 A3028 RMK A01 T10491052  RH  098%=      5-min Rain = 0
KHRS 091045Z 33007KT M05/M05 A3028 RMK A01 T10491052  RH  098%=      5-min Rain = 0
KHRS 091050Z 33007KT M05/M05 A3028 RMK A01 T10491053  RH  098%=      5-min Rain = 0
KHRS 091055Z 33007KT M05/M05 A3028 RMK A01 T10491053  RH  098%=      5-min Rain = 0
KHRS 091100Z 33007KT M05/M05 A3028 RMK A01 T10501054  RH  098%=      5-min Rain = 0
KHRS 091105Z 33006KT M05/M05 A3028 RMK A01 T10501054  RH  098%=      5-min Rain = 0
KHRS 091110Z 33006KT M05/M06 A3028 RMK A01 T10501055  RH  098%=      5-min Rain = 0
KHRS 091115Z 33006KT M05/M06 A3028 RMK A01 T10511055  RH  098%=      5-min Rain = 0
KHRS 091120Z 33006KT M05/M06 A3028 RMK A01 T10511055  RH  098%=      5-min Rain = 0
KHRS 091125Z 33006KT M05/M06 A3028 RMK A01 T10521056  RH  098%=      5-min Rain = 0
KHRS 091130Z 32006KT M05/M06 A3028 RMK A01 T10521056  RH  098%=      5-min Rain = 0
KHRS 091135Z 33006KT M05/M06 A3028 RMK A01 T10531057  RH  098%=      5-min Rain = 0
KHRS 091140Z 33006KT M05/M06 A3028 RMK A01 T10541059  RH  098%=      5-min Rain = 0
KHRS 091145Z 33005KT M06/M06 A3028 RMK A01 T10551059  RH  098%=      5-min Rain = 0
KHRS 091150Z 33005KT M06/M06 A3028 RMK A01 T10561061  RH  098%=      5-min Rain = 0
KHRS 091155Z 33007KT M06/M06 A3028 RMK A01 T10561060  RH  098%=      5-min Rain = 0
KHRS 091200Z 33007KT M06/M06 A3028 RMK A01 T10551059  RH  098%=      5-min Rain = 0
KHRS 091205Z 33008KT M05/M06 A3028 RMK A01 T10541058  RH  098%=      5-min Rain = 0
KHRS 091210Z 33009KT M05/M06 A3029 RMK A01 T10541058  RH  098%=      5-min Rain = 0
KHRS 091215Z 33008KT M05/M06 A3029 RMK A01 T10531057  RH  098%=      5-min Rain = 0
KHRS 091220Z 33007KT M05/M06 A3029 RMK A01 T10531057  RH  098%=      5-min Rain = 0
KHRS 091225Z 34007KT M05/M06 A3029 RMK A01 T10541058  RH  098%=      5-min Rain = 0
KHRS 091230Z 34007KT M05/M06 A3029 RMK A01 T10541058  RH  098%=      5-min Rain = 0
KHRS 091235Z 34006KT M06/M06 A303 RMK A01 T10551059  RH  098%=      5-min Rain = 0
KHRS 091240Z 34006KT M06/M06 A303 RMK A01 T10551060  RH  098%=      5-min Rain = 0
KHRS 091245Z 33005KT M06/M06 A303 RMK A01 T10561061  RH  098%=      5-min Rain = 0
KHRS 091250Z 34006KT M06/M06 A303 RMK A01 T10571062  RH  098%=      5-min Rain = 0
KHRS 091255Z 34005KT M06/M06 A303 RMK A01 T10571061  RH  098%=      5-min Rain = 0
KHRS 091300Z 34005KT M06/M06 A303 RMK A01 T10571062  RH  098%=      5-min Rain = 0
KHRS 091305Z 34006KT M06/M06 A303 RMK A01 T10591064  RH  098%=      5-min Rain = 0
KHRS 091310Z 34007KT M06/M06 A3031 RMK A01 T10581063  RH  098%=      5-min Rain = 0
KHRS 091315Z 33007KT M06/M06 A3031 RMK A01 T10591063  RH  098%=      5-min Rain = 0
KHRS 091320Z 33008KT M06/M07 A3031 RMK A01 T10601065  RH  097%=      5-min Rain = 0
KHRS 091325Z 33007KT M06/M07 A3031 RMK A01 T10601065  RH  097%=      5-min Rain = 0
KHRS 091330Z 34007KT M06/M06 A3032 RMK A01 T10591064  RH  097%=      5-min Rain = 0
KHRS 091335Z 34007KT M06/M06 A3032 RMK A01 T10591064  RH  097%=      5-min Rain = 0
KHRS 091340Z 33006KT M06/M07 A3032 RMK A01 T10601065  RH  097%=      5-min Rain = 0
KHRS 091345Z 33005KT M06/M07 A3032 RMK A01 T10601066  RH  097%=      5-min Rain = 0
KHRS 091350Z 33005KT M06/M07 A3032 RMK A01 T10611067  RH  097%=      5-min Rain = 0
KHRS 091355Z 32005KT M06/M07 A3033 RMK A01 T10621067  RH  097%=      5-min Rain = 0
KHRS 091400Z 32006KT M06/M07 A3033 RMK A01 T10611067  RH  097%=      5-min Rain = 0
KHRS 091405Z 32007KT M06/M07 A3033 RMK A01 T10591065  RH  097%=      5-min Rain = 0
KHRS 091410Z 32008KT M06/M06 A3033 RMK A01 T10571063  RH  097%=      5-min Rain = 0
KHRS 091415Z 32008KT M06/M06 A3034 RMK A01 T10561062  RH  097%=      5-min Rain = 0
KHRS 091420Z 32007KT M05/M06 A3034 RMK A01 T10541060  RH  096%=      5-min Rain = 0
KHRS 091425Z 32007KT M05/M06 A3034 RMK A01 T10521059  RH  096%=      5-min Rain = 0
KHRS 091430Z 32007KT M05/M06 A3034 RMK A01 T10501057  RH  096%=      5-min Rain = 0
KHRS 091435Z 32007KT M05/M06 A3034 RMK A01 T10491056  RH  096%=      5-min Rain = 0
KHRS 091440Z 32006KT M05/M06 A3034 RMK A01 T10471055  RH  095%=      5-min Rain = 0
KHRS 091445Z 32006KT M05/M05 A3034 RMK A01 T10451052  RH  096%=      5-min Rain = 0
KHRS 091450Z 32006KT M04/M05 A3034 RMK A01 T10431051  RH  095%=      5-min Rain = 0
KHRS 091455Z 31005KT M04/M05 A3035 RMK A01 T10401048  RH  095%=      5-min Rain = 0
KHRS 091500Z 30004KT M04/M04 A3035 RMK A01 T10361044  RH  095%=      5-min Rain = 0
KHRS 091505Z 30004KT M03/M04 A3035 RMK A01 T10341043  RH  095%=      5-min Rain = 0
KHRS 091510Z 31004KT M03/M04 A3035 RMK A01 T10311040  RH  095%=      5-min Rain = 0
KHRS 091515Z 32003KT M03/M04 A3035 RMK A01 T10281037  RH  095%=      5-min Rain = 0
KHRS 091520Z 35002KT M03/M03 A3035 RMK A01 T10251033  RH  095%=      5-min Rain = 0
KHRS 091525Z 34003KT M02/M03 A3036 RMK A01 T10211030  RH  094%=      5-min Rain = 0
KHRS 091530Z 33003KT M02/M03 A3036 RMK A01 T10181028  RH  094%=      5-min Rain = 0
KHRS 091535Z 34003KT M02/M03 A3036 RMK A01 T10161027  RH  093%=      5-min Rain = 0
KHRS 091540Z 34004KT M01/M02 A3036 RMK A01 T10121024  RH  093%=      5-min Rain = 0
KHRS 091545Z 33004KT M01/M02 A3036 RMK A01 T10091021  RH  092%=      5-min Rain = 0
KHRS 091550Z 33004KT M01/M02 A3036 RMK A01 T10061019  RH  092%=      5-min Rain = 0
KHRS 091555Z 33004KT M00/M02 A3037 RMK A01 T10031018  RH  091%=      5-min Rain = 0
KHRS 091600Z 32003KT 00/M02 A3037 RMK A01 T00011015  RH  091%=      5-min Rain = 0
KHRS 091605Z 32004KT 01/M01 A3037 RMK A01 T00051011  RH  090%=      5-min Rain = 0
KHRS 091610Z 33004KT 01/M01 A3037 RMK A01 T00071011  RH  089%=      5-min Rain = 0
KHRS 091615Z 33004KT 01/M01 A3037 RMK A01 T00091011  RH  087%=      5-min Rain = 0
KHRS 091620Z 33004KT 01/M01 A3037 RMK A01 T00141008  RH  086%=      5-min Rain = 0
KHRS 091625Z 32004KT 02/M01 A3037 RMK A01 T00171008  RH  085%=      5-min Rain = 0
KHRS 091630Z 33004KT 02/M00 A3037 RMK A01 T00211004  RH  084%=      5-min Rain = 0
KHRS 091635Z 34004KT 02/M01 A3037 RMK A01 T00231006  RH  082%=      5-min Rain = 0
KHRS 091640Z 34004KT 03/M01 A3037 RMK A01 T00251008  RH  080%=      5-min Rain = 0
KHRS 091645Z 36004KT 03/M01 A3037 RMK A01 T00261010  RH  078%=      5-min Rain = 0
KHRS 091650Z 01004KT 03/M01 A3037 RMK A01 T00291011  RH  076%=      5-min Rain = 0
KHRS 091655Z 36004KT 03/M01 A3037 RMK A01 T00311012  RH  074%=      5-min Rain = 0
KHRS 091700Z 00004KT 03/M01 A3036 RMK A01 T00331014  RH  072%=      5-min Rain = 0
KHRS 091705Z 01004KT 04/M01 A3036 RMK A01 T00351014  RH  071%=      5-min Rain = 0
KHRS 091710Z 01005KT 04/M01 A3036 RMK A01 T00361014  RH  070%=      5-min Rain = 0
KHRS 091715Z 02005KT 04/M02 A3036 RMK A01 T00391016  RH  068%=      5-min Rain = 0
KHRS 091720Z 01005KT 04/M02 A3037 RMK A01 T00391020  RH  066%=      5-min Rain = 0
KHRS 091725Z 01005KT 04/M02 A3037 RMK A01 T00401020  RH  066%=      5-min Rain = 0
KHRS 091730Z 36005KT 04/M02 A3037 RMK A01 T00421018  RH  066%=      5-min Rain = 0
KHRS 091735Z 35004KT 04/M02 A3037 RMK A01 T00431018  RH  065%=      5-min Rain = 0
KHRS 091740Z 00005KT 04/M02 A3037 RMK A01 T00441018  RH  065%=      5-min Rain = 0
KHRS 091745Z 36004KT 04/M02 A3037 RMK A01 T00441017  RH  065%=      5-min Rain = 0
KHRS 091750Z 35004KT 05/M02 A3037 RMK A01 T00461015  RH  065%=      5-min Rain = 0
KHRS 091755Z 35005KT 05/M01 A3037 RMK A01 T00471014  RH  065%=      5-min Rain = 0
KHRS 091800Z 36003KT 05/M02 A3036 RMK A01 T00481015  RH  065%=      5-min Rain = 0
KHRS 091805Z 32003KT 05/M02 A3036 RMK A01 T00481015  RH  065%=      5-min Rain = 0
KHRS 091810Z 03003KT 05/M01 A3036 RMK A01 T00511010  RH  066%=      5-min Rain = 0
KHRS 091815Z 36004KT 06/M01 A3035 RMK A01 T00551008  RH  065%=      5-min Rain = 0
KHRS 091820Z 35005KT 06/M01 A3035 RMK A01 T00561011  RH  063%=      5-min Rain = 0
KHRS 091825Z 36003KT 06/M02 A3035 RMK A01 T00551017  RH  061%=      5-min Rain = 0
KHRS 091830Z 03003KT 06/M02 A3035 RMK A01 T00561017  RH  060%=      5-min Rain = 0
KHRS 091835Z 36003KT 06/M02 A3034 RMK A01 T00561020  RH  059%=      5-min Rain = 0
KHRS 091840Z 33002KT 06/M02 A3034 RMK A01 T00571020  RH  058%=      5-min Rain = 0
KHRS 091845Z 35002KT 06/M03 A3034 RMK A01 T00611026  RH  054%=      5-min Rain = 0
KHRS 091850Z 00005KT 06/M02 A3033 RMK A01 T00611024  RH  055%=      5-min Rain = 0
KHRS 091855Z 02004KT 06/M02 A3033 RMK A01 T00631021  RH  055%=      5-min Rain = 0
KHRS 091900Z 34004KT 06/M02 A3033 RMK A01 T00631020  RH  056%=      5-min Rain = 0
KHRS 091905Z 34003G9KT 06/M02 A3033 RMK A01 T00641022  RH  055%=      5-min Rain = 0
KHRS 091910Z 35005KT 07/M02 A3033 RMK A01 T00661019  RH  055%=      5-min Rain = 0
KHRS 091915Z 35004KT 07/M02 A3033 RMK A01 T00661020  RH  055%=      5-min Rain = 0
KHRS 091920Z 02002KT 07/M02 A3033 RMK A01 T00661023  RH  053%=      5-min Rain = 0
KHRS 091925Z 32001KT 07/M02 A3033 RMK A01 T00681024  RH  052%=      5-min Rain = 0
KHRS 091930Z 28001KT 07/M02 A3033 RMK A01 T00681021  RH  054%=      5-min Rain = 0
KHRS 091935Z 31003KT 07/M02 A3032 RMK A01 T00721016  RH  054%=      5-min Rain = 0
KHRS 091940Z 36005KT 07/M02 A3032 RMK A01 T00721017  RH  054%=      5-min Rain = 0
KHRS 091945Z 02004KT 07/M02 A3032 RMK A01 T00711020  RH  053%=      5-min Rain = 0
KHRS 091950Z 01004KT 07/M02 A3032 RMK A01 T00711017  RH  054%=      5-min Rain = 0
KHRS 091955Z 35002KT 07/M02 A3032 RMK A01 T00711020  RH  053%=      5-min Rain = 0
KHRS 092000Z 26002KT 07/M02 A3032 RMK A01 T00731017  RH  053%=      5-min Rain = 0
KHRS 092005Z 31003KT 08/M02 A3032 RMK A01 T00751020  RH  052%=      5-min Rain = 0
KHRS 092010Z 34004KT 08/M02 A3031 RMK A01 T00771017  RH  052%=      5-min Rain = 0
KHRS 092015Z 33003KT 08/M02 A3031 RMK A01 T00781021  RH  050%=      5-min Rain = 0
KHRS 092020Z 34002G7KT 08/M02 A3031 RMK A01 T00801017  RH  051%=      5-min Rain = 0
KHRS 092025Z 01002KT 08/M02 A3031 RMK A01 T00791021  RH  050%=      5-min Rain = 0
KHRS 092030Z 32003KT 08/M02 A3031 RMK A01 T00801021  RH  050%=      5-min Rain = 0
KHRS 092035Z 33002KT 08/M02 A3031 RMK A01 T00791023  RH  049%=      5-min Rain = 0
KHRS 092040Z 00003KT 08/M02 A3031 RMK A01 T00801019  RH  050%=      5-min Rain = 0
KHRS 092045Z 34002KT 08/M02 A3031 RMK A01 T00811023  RH  048%=      5-min Rain = 0
KHRS 092050Z 35004KT 08/M03 A3031 RMK A01 T00831026  RH  047%=      5-min Rain = 0
KHRS 092055Z 33005KT 08/M03 A3031 RMK A01 T00821029  RH  046%=      5-min Rain = 0
KHRS 092100Z 30002KT 08/M03 A3031 RMK A01 T00831033  RH  044%=      5-min Rain = 0
KHRS 092105Z 01005KT 09/M03 A3031 RMK A01 T00851025  RH  046%=      5-min Rain = 0
KHRS 092110Z 02004KT 08/M03 A3031 RMK A01 T00831031  RH  045%=      5-min Rain = 0
KHRS 092115Z 32003KT 08/M03 A3031 RMK A01 T00821034  RH  044%=      5-min Rain = 0
KHRS 092120Z 32002KT 08/M03 A3031 RMK A01 T00841034  RH  043%=      5-min Rain = 0
KHRS 092125Z 32002KT 09/M04 A3031 RMK A01 T00851035  RH  043%=      5-min Rain = 0
KHRS 092130Z 34000KT 09/M04 A3031 RMK A01 T00881035  RH  042%=      5-min Rain = 0
KHRS 092135Z 34003KT 09/M04 A3031 RMK A01 T00921037  RH  040%=      5-min Rain = 0
KHRS 092140Z 33003KT 09/M04 A3031 RMK A01 T00871038  RH  041%=      5-min Rain = 0
KHRS 092145Z 28003KT 09/M03 A3031 RMK A01 T00891033  RH  043%=      5-min Rain = 0
KHRS 092150Z 32004KT 09/M03 A3031 RMK A01 T00901034  RH  042%=      5-min Rain = 0
KHRS 092155Z 33005KT 09/M03 A3031 RMK A01 T00891033  RH  043%=      5-min Rain = 0
KHRS 092200Z 01004KT 09/M03 A3031 RMK A01 T00891026  RH  045%=      5-min Rain = 0
KHRS 092205Z 02006KT 09/M03 A3031 RMK A01 T00881026  RH  045%=      5-min Rain = 0
KHRS 092210Z 02005KT 09/M03 A3031 RMK A01 T00861028  RH  045%=      5-min Rain = 0
KHRS 092215Z 03003KT 09/M03 A3031 RMK A01 T00861033  RH  043%=      5-min Rain = 0
KHRS 092220Z 01004KT 09/M03 A3031 RMK A01 T00861031  RH  044%=      5-min Rain = 0
KHRS 092225Z 36003KT 09/M03 A3031 RMK A01 T00861032  RH  044%=      5-min Rain = 0
KHRS 092230Z 36004KT 09/M03 A3031 RMK A01 T00871029  RH  045%=      5-min Rain = 0
KHRS 092235Z 01004KT 09/M04 A3031 RMK A01 T00851035  RH  043%=      5-min Rain = 0
KHRS 092240Z 35002KT 08/M04 A3031 RMK A01 T00841039  RH  042%=      5-min Rain = 0
KHRS 092245Z 15003KT 08/M02 A3031 RMK A01 T00841018  RH  049%=      5-min Rain = 0
KHRS 092250Z 14006KT 07/00 A3031 RMK A01 T00740003  RH  061%=      5-min Rain = 0
KHRS 092255Z 15006KT 07/00 A3031 RMK A01 T00650000  RH  064%=      5-min Rain = 0
KHRS 092300Z 16006KT 06/M00 A3031 RMK A01 T00611002  RH  065%=      5-min Rain = 0
KHRS 092305Z 16006KT 06/00 A3031 RMK A01 T00600001  RH  067%=      5-min Rain = 0
KHRS 092310Z 17005KT 06/00 A3031 RMK A01 T00580004  RH  069%=      5-min Rain = 0
KHRS 092315Z 18005KT 06/00 A3031 RMK A01 T00550001  RH  069%=      5-min Rain = 0
KHRS 092320Z 17005KT 05/M00 A3031 RMK A01 T00511002  RH  069%=      5-min Rain = 0
KHRS 092325Z 18006KT 05/M00 A3031 RMK A01 T00461003  RH  071%=      5-min Rain = 0
KHRS 092330Z 18005KT 04/M01 A3032 RMK A01 T00411005  RH  073%=      5-min Rain = 0
KHRS 092335Z 19005KT 04/M01 A3032 RMK A01 T00351009  RH  074%=      5-min Rain = 0
KHRS 092340Z 19005KT 03/M01 A3032 RMK A01 T00291009  RH  077%=      5-min Rain = 0
KHRS 092345Z 19005KT 03/M01 A3032 RMK A01 T00271009  RH  078%=      5-min Rain = 0
KHRS 092350Z 19006KT 02/M01 A3032 RMK A01 T00221012  RH  079%=      5-min Rain = 0
KHRS 092355Z 19006KT 02/M01 A3032 RMK A01 T00181013  RH  081%=      5-min Rain = 0
KHRS 100000Z 20006KT 02/M01 A3032 RMK A01 T00171012  RH  082%=      5-min Rain = 0
KHRS 100005Z 20006KT 02/M01 A3032 RMK A01 T00151012  RH  083%=      5-min Rain = 0
KHRS 100010Z 19006KT 01/M01 A3032 RMK A01 T00121013  RH  084%=      5-min Rain = 0
KHRS 100015Z 19005KT 01/M01 A3033 RMK A01 T00121012  RH  085%=      5-min Rain = 0
KHRS 100020Z 21006KT 01/M02 A3033 RMK A01 T00101015  RH  085%=      5-min Rain = 0
KHRS 100025Z 21005KT 01/M02 A3033 RMK A01 T00071016  RH  085%=      5-min Rain = 0
KHRS 100030Z 22003KT 01/M02 A3034 RMK A01 T00051016  RH  087%=      5-min Rain = 0
KHRS 100035Z 23003KT 01/M02 A3034 RMK A01 T00051016  RH  087%=      5-min Rain = 0
KHRS 100040Z 23003KT 01/M02 A3034 RMK A01 T00051015  RH  088%=      5-min Rain = 0
KHRS 100045Z 24002KT 00/M02 A3034 RMK A01 T00041015  RH  088%=      5-min Rain = 0
KHRS 100050Z 27002KT 00/M02 A3034 RMK A01 T00011018  RH  088%=      5-min Rain = 0
KHRS 100055Z 27002KT 00/M01 A3034 RMK A01 T00031014  RH  090%=      5-min Rain = 0
KHRS 100100Z 27001KT 00/M02 A3035 RMK A01 T00021015  RH  089%=      5-min Rain = 0
KHRS 100105Z 05001KT M01/M03 A3035 RMK A01 T10061025  RH  088%=      5-min Rain = 0
KHRS 100110Z 23002KT M01/M02 A3035 RMK A01 T10051020  RH  091%=      5-min Rain = 0
KHRS 100115Z 23001KT M01/M02 A3035 RMK A01 T10061021  RH  091%=      5-min Rain = 0
KHRS 100120Z 23001KT M01/M02 A3035 RMK A01 T10071022  RH  091%=      5-min Rain = 0
KHRS 100125Z 23001KT M01/M02 A3035 RMK A01 T10091022  RH  091%=      5-min Rain = 0
KHRS 100130Z 23002KT M01/M02 A3035 RMK A01 T10081021  RH  092%=      5-min Rain = 0
KHRS 100135Z 23002KT M01/M03 A3035 RMK A01 T10111025  RH  092%=      5-min Rain = 0
KHRS 100140Z 23003KT M01/M02 A3035 RMK A01 T10111023  RH  093%=      5-min Rain = 0
KHRS 100145Z 24003KT M01/M03 A3036 RMK A01 T10141027  RH  092%=      5-min Rain = 0
KHRS 100150Z 25003KT M02/M03 A3036 RMK A01 T10151027  RH  093%=      5-min Rain = 0
KHRS 100155Z 25004KT M01/M02 A3036 RMK A01 T10121022  RH  094%=      5-min Rain = 0
KHRS 100200Z 25004KT M01/M02 A3035 RMK A01 T10101020  RH  094%=      5-min Rain = 0
KHRS 100205Z 25004KT M01/M02 A3036 RMK A01 T10091019  RH  094%=      5-min Rain = 0
KHRS 100210Z 25005KT M01/M02 A3036 RMK A01 T10101020  RH  094%=      5-min Rain = 0
KHRS 100215Z 25005KT M01/M02 A3036 RMK A01 T10111020  RH  095%=      5-min Rain = 0
KHRS 100220Z 25006KT M01/M02 A3036 RMK A01 T10091018  RH  095%=      5-min Rain = 0
KHRS 100225Z 25006KT M01/M02 A3036 RMK A01 T10091019  RH  094%=      5-min Rain = 0
KHRS 100230Z 24006KT M01/M02 A3036 RMK A01 T10071019  RH  093%=      5-min Rain = 0
KHRS 100235Z 25005KT M01/M02 A3036 RMK A01 T10081022  RH  091%=      5-min Rain = 0
KHRS 100240Z 25005KT M01/M03 A3037 RMK A01 T10111025  RH  091%=      5-min Rain = 0
KHRS 100245Z 26005KT M01/M03 A3037 RMK A01 T10131027  RH  091%=      5-min Rain = 0
KHRS 100250Z 26005KT M02/M03 A3037 RMK A01 T10151029  RH  092%=      5-min Rain = 0
KHRS 100255Z 26006KT M02/M03 A3037 RMK A01 T10171029  RH  092%=      5-min Rain = 0
KHRS 100300Z 26006KT M02/M03 A3037 RMK A01 T10171029  RH  092%=      5-min Rain = 0
KHRS 100305Z 25006KT M02/M03 A3037 RMK A01 T10151027  RH  093%=      5-min Rain = 0
KHRS 100310Z 25005KT M01/M03 A3037 RMK A01 T10141028  RH  092%=      5-min Rain = 0
KHRS 100315Z 25005KT M02/M03 A3037 RMK A01 T10161029  RH  091%=      5-min Rain = 0
KHRS 100320Z 26005KT M02/M03 A3037 RMK A01 T10161030  RH  091%=      5-min Rain = 0
KHRS 100325Z 26005KT M02/M03 A3037 RMK A01 T10171031  RH  091%=      5-min Rain = 0
KHRS 100330Z 26005KT M02/M03 A3037 RMK A01 T10191032  RH  091%=      5-min Rain = 0
KHRS 100335Z 26005KT M02/M03 A3036 RMK A01 T10201033  RH  092%=      5-min Rain = 0
KHRS 100340Z 26005KT M02/M03 A3036 RMK A01 T10191031  RH  092%=      5-min Rain = 0
KHRS 100345Z 26006KT M02/M03 A3036 RMK A01 T10191032  RH  092%=      5-min Rain = 0
KHRS 100350Z 26006KT M02/M03 A3036 RMK A01 T10191031  RH  093%=      5-min Rain = 0
KHRS 100355Z 26006KT M02/M03 A3036 RMK A01 T10191032  RH  092%=      5-min Rain = 0
KHRS 100400Z 26006KT M02/M03 A3036 RMK A01 T10201033  RH  092%=      5-min Rain = 0
KHRS 100405Z 26006KT M02/M03 A3036 RMK A01 T10221034  RH  092%=      5-min Rain = 0
KHRS 100410Z 27006KT M02/M03 A3037 RMK A01 T10221034  RH  093%=      5-min Rain = 0
KHRS 100415Z 27006KT M02/M03 A3037 RMK A01 T10221033  RH  093%=      5-min Rain = 0
KHRS 100420Z 28006KT M02/M03 A3037 RMK A01 T10221033  RH  093%=      5-min Rain = 0
KHRS 100425Z 28006KT M02/M03 A3037 RMK A01 T10221034  RH  093%=      5-min Rain = 0
KHRS 100430Z 28006KT M02/M03 A3037 RMK A01 T10221033  RH  093%=      5-min Rain = 0
KHRS 100435Z 28005KT M02/M03 A3037 RMK A01 T10231034  RH  093%=      5-min Rain = 0
KHRS 100440Z 28005KT M02/M03 A3037 RMK A01 T10231034  RH  093%=      5-min Rain = 0
KHRS 100445Z 29005KT M02/M04 A3037 RMK A01 T10231035  RH  093%=      5-min Rain = 0
KHRS 100450Z 28006KT M03/M04 A3037 RMK A01 T10251036  RH  093%=      5-min Rain = 0
KHRS 100455Z 29006KT M03/M04 A3037 RMK A01 T10251036  RH  093%=      5-min Rain = 0
KHRS 100500Z 29006KT M03/M04 A3037 RMK A01 T10251035  RH  094%=      5-min Rain = 0
KHRS 100505Z 29006KT M02/M04 A3037 RMK A01 T10241035  RH  094%=      5-min Rain = 0
KHRS 100510Z 29006KT M02/M04 A3037 RMK A01 T10241035  RH  093%=      5-min Rain = 0
KHRS 100515Z 29006KT M03/M04 A3037 RMK A01 T10251036  RH  093%=      5-min Rain = 0
KHRS 100520Z 29005KT M03/M04 A3037 RMK A01 T10251036  RH  093%=      5-min Rain = 0
KHRS 100525Z 28006KT M03/M04 A3037 RMK A01 T10251036  RH  093%=      5-min Rain = 0
KHRS 100530Z 28006KT M03/M04 A3037 RMK A01 T10251036  RH  093%=      5-min Rain = 0
KHRS 100535Z 28006KT M03/M04 A3037 RMK A01 T10261037  RH  093%=      5-min Rain = 0
KHRS 100540Z 28005KT M03/M04 A3037 RMK A01 T10271038  RH  093%=      5-min Rain = 0
KHRS 100545Z 27005KT M03/M04 A3037 RMK A01 T10291040  RH  093%=      5-min Rain = 0
KHRS 100550Z 27006KT M03/M04 A3037 RMK A01 T10311042  RH  093%=      5-min Rain = 0
KHRS 100555Z 27006KT M03/M04 A3037 RMK A01 T10311042  RH  094%=      5-min Rain = 0

Page generated in 0.0119 seconds.